createdAt,value
2023-04-12T00:02:03.485Z,75.96
2023-04-12T00:04:34.485Z,75.55
2023-04-12T00:07:02.746Z,75.37
2023-04-12T00:09:32.905Z,75.79
2023-04-12T00:11:59.993Z,75.49
2023-04-12T00:14:27.507Z,75.98
2023-04-12T00:16:55.109Z,76.02
2023-04-12T00:19:22.153Z,75.90
2023-04-12T00:21:49.213Z,75.60
2023-04-12T00:24:16.331Z,75.48
2023-04-12T00:26:43.429Z,75.57
2023-04-12T00:29:11.086Z,75.42
2023-04-12T00:31:38.287Z,75.60
2023-04-12T00:34:05.735Z,75.36
2023-04-12T00:36:33.177Z,75.38
2023-04-12T00:39:00.704Z,76.03
2023-04-12T00:41:28.164Z,76.20
2023-04-12T00:43:55.804Z,75.99
2023-04-12T00:46:23.136Z,75.76
2023-04-12T00:48:50.405Z,76.48
2023-04-12T00:51:18.454Z,76.01
2023-04-12T00:53:46.309Z,75.89
2023-04-12T00:56:13.612Z,76.02
2023-04-12T00:58:41.571Z,76.06
2023-04-12T01:01:10.773Z,75.97
2023-04-12T01:03:42.981Z,76.92
2023-04-12T01:06:29.791Z,76.72
2023-04-12T01:09:16.322Z,76.54
2023-04-12T01:12:05.782Z,76.53
2023-04-12T01:14:52.938Z,76.68
2023-04-12T01:17:25.344Z,76.41
2023-04-12T01:20:14.237Z,76.65
2023-04-12T01:23:05.178Z,77.08
2023-04-12T01:25:47.479Z,77.05
2023-04-12T01:28:30.240Z,76.70
2023-04-12T01:30:58.121Z,76.63
2023-04-12T01:33:31.228Z,77.01
2023-04-12T01:36:06.994Z,77.30
2023-04-12T01:38:36.639Z,77.03
2023-04-12T01:41:05.452Z,77.11
2023-04-12T01:43:33.979Z,76.81
2023-04-12T01:46:02.320Z,76.45
2023-04-12T01:48:30.424Z,76.48
2023-04-12T01:51:05.901Z,76.63
2023-04-12T01:53:43.098Z,76.77
2023-04-12T01:56:10.975Z,76.93
2023-04-12T01:58:39.800Z,76.30
2023-04-12T02:01:08.056Z,76.38
2023-04-12T02:03:38.365Z,76.18
2023-04-12T02:06:07.166Z,76.06
2023-04-12T02:08:35.827Z,76.23
2023-04-12T02:11:12.781Z,76.40
2023-04-12T02:13:41.015Z,76.13
2023-04-12T02:16:11.050Z,75.73
2023-04-12T02:18:41.699Z,75.70
2023-04-12T02:21:10.382Z,76.24
2023-04-12T02:23:38.011Z,76.39
2023-04-12T02:26:05.844Z,76.51
2023-04-12T02:28:34.891Z,76.26
2023-04-12T02:31:03.322Z,76.12
2023-04-12T02:33:35.033Z,76.34
2023-04-12T02:36:02.800Z,76.37
2023-04-12T02:38:32.997Z,76.02
2023-04-12T02:41:00.902Z,76.37
2023-04-12T02:43:28.875Z,76.40
2023-04-12T02:45:57.063Z,76.83
2023-04-12T02:48:24.817Z,76.49
2023-04-12T02:50:52.498Z,76.84
2023-04-12T02:53:24.601Z,76.94
2023-04-12T02:55:52.007Z,77.13
2023-04-12T02:58:19.130Z,76.94
2023-04-12T03:00:47.442Z,76.85
2023-04-12T03:03:18.456Z,77.29
2023-04-12T03:05:47.583Z,76.99
2023-04-12T03:08:15.288Z,77.65
2023-04-12T03:10:44.058Z,77.70
2023-04-12T03:13:11.916Z,77.61
2023-04-12T03:15:40.582Z,77.49
2023-04-12T03:18:08.023Z,77.52
2023-04-12T03:20:35.619Z,77.65
2023-04-12T03:23:02.749Z,77.79
2023-04-12T03:25:30.224Z,77.72
2023-04-12T03:27:57.390Z,77.42
2023-04-12T03:30:24.637Z,78.05
2023-04-12T03:32:51.845Z,77.70
2023-04-12T03:35:19.453Z,78.06
2023-04-12T03:37:47.382Z,77.95
2023-04-12T03:40:14.497Z,77.87
2023-04-12T03:42:41.860Z,77.53
2023-04-12T03:45:09.122Z,78.21
2023-04-12T03:47:37.163Z,77.67
2023-04-12T03:50:12.353Z,78.05
2023-04-12T03:52:40.049Z,78.27
2023-04-12T03:55:08.142Z,78.00
2023-04-12T03:57:35.748Z,78.16
2023-04-12T04:00:02.961Z,78.33
2023-04-12T04:02:31.606Z,78.15
2023-04-12T04:04:59.439Z,78.49
2023-04-12T04:07:27.032Z,78.39
2023-04-12T04:09:55.064Z,78.25
2023-04-12T04:12:22.199Z,78.51
2023-04-12T04:14:49.261Z,78.70
2023-04-12T04:17:16.411Z,78.31
2023-04-12T04:19:43.465Z,78.67
2023-04-12T04:22:12.376Z,78.58
2023-04-12T04:24:40.120Z,78.62
2023-04-12T04:27:07.180Z,79.00
2023-04-12T04:29:34.324Z,78.20
2023-04-12T04:32:02.069Z,78.71
2023-04-12T04:34:29.566Z,78.27
2023-04-12T04:36:57.630Z,78.12
2023-04-12T04:39:25.763Z,77.59
2023-04-12T04:41:54.759Z,77.92
2023-04-12T04:44:22.237Z,77.90
2023-04-12T04:46:49.478Z,78.31
2023-04-12T04:49:16.688Z,78.04
2023-04-12T04:51:43.992Z,78.33
2023-04-12T04:54:11.331Z,77.07
2023-04-12T04:56:38.501Z,76.72
2023-04-12T04:59:05.540Z,76.02
2023-04-12T05:01:35.937Z,75.70
2023-04-12T05:04:03.955Z,75.26
2023-04-12T05:06:31.216Z,74.88
2023-04-12T05:08:58.573Z,74.59
2023-04-12T05:11:26.060Z,74.41
2023-04-12T05:13:53.620Z,74.68
2023-04-12T05:16:20.703Z,74.48
2023-04-12T05:18:47.825Z,74.17
2023-04-12T05:21:14.904Z,73.89
2023-04-12T05:23:44.318Z,73.75
2023-04-12T05:26:11.429Z,72.61
2023-04-12T05:28:38.481Z,72.93
2023-04-12T05:31:06.140Z,72.29
2023-04-12T05:33:34.572Z,72.30
2023-04-12T05:36:01.823Z,72.11
2023-04-12T05:38:28.962Z,71.38
2023-04-12T05:40:56.268Z,71.40
2023-04-12T05:43:23.323Z,70.97
2023-04-12T05:45:51.096Z,71.05
2023-04-12T05:48:19.216Z,70.96
2023-04-12T05:50:53.173Z,70.82
2023-04-12T05:53:21.700Z,70.48
2023-04-12T05:55:48.776Z,70.66
2023-04-12T05:58:15.856Z,70.19
2023-04-12T06:00:43.510Z,70.49
2023-04-12T06:03:11.515Z,70.26
2023-04-12T06:05:39.319Z,69.83
2023-04-12T06:08:06.774Z,69.71
2023-04-12T06:10:33.861Z,69.75
2023-04-12T06:13:00.897Z,69.48
2023-04-12T06:15:28.049Z,69.32
2023-04-12T06:17:55.164Z,69.22
2023-04-12T06:20:22.254Z,68.88
2023-04-12T06:22:49.635Z,69.29
2023-04-12T06:25:16.731Z,68.42
2023-04-12T06:27:44.109Z,67.22
2023-04-12T06:30:11.616Z,67.14
2023-04-12T06:32:38.887Z,65.44
2023-04-12T06:35:06.219Z,66.11
2023-04-12T06:37:33.281Z,65.93
2023-04-12T06:40:00.443Z,65.95
2023-04-12T06:42:27.482Z,64.30
2023-04-12T06:44:54.599Z,64.77
2023-04-12T06:47:22.836Z,64.70
2023-04-12T06:49:54.771Z,64.67
2023-04-12T06:52:26.717Z,63.44
2023-04-12T06:54:56.029Z,63.81
2023-04-12T06:57:23.368Z,63.61
2023-04-12T06:59:50.550Z,62.40
2023-04-12T07:02:18.364Z,62.34
2023-04-12T07:04:45.629Z,62.30
2023-04-12T07:07:12.941Z,62.10
2023-04-12T07:09:40.613Z,62.21
2023-04-12T07:12:07.701Z,61.75
2023-04-12T07:14:35.091Z,61.03
2023-04-12T07:17:02.476Z,59.70
2023-04-12T07:19:31.309Z,59.86
2023-04-12T07:21:59.266Z,60.06
2023-04-12T07:24:26.294Z,60.31
2023-04-12T07:26:55.098Z,58.01
2023-04-12T07:29:22.247Z,56.03
2023-04-12T07:31:49.286Z,55.46
2023-04-12T07:34:16.587Z,55.95
2023-04-12T07:36:46.320Z,54.84
2023-04-12T07:39:14.306Z,54.81
2023-04-12T07:41:43.318Z,54.88
2023-04-12T07:44:10.393Z,53.62
2023-04-12T07:46:37.466Z,53.11
2023-04-12T07:49:04.706Z,52.07
2023-04-12T07:51:32.949Z,52.68
2023-04-12T07:54:00.424Z,52.38
2023-04-12T07:56:27.691Z,51.67
2023-04-12T07:58:54.741Z,50.87
2023-04-12T08:01:21.775Z,51.19
2023-04-12T08:03:49.044Z,50.03
2023-04-12T08:06:17.322Z,49.60
2023-04-12T08:08:44.747Z,49.80
2023-04-12T08:11:11.786Z,49.50
2023-04-12T08:13:39.125Z,49.45
2023-04-12T08:16:06.896Z,48.28
2023-04-12T08:18:34.051Z,48.58
2023-04-12T08:21:01.836Z,47.67
2023-04-12T08:23:29.267Z,47.87
2023-04-12T08:26:03.194Z,47.60
2023-04-12T08:28:31.079Z,47.01
2023-04-12T08:30:59.230Z,47.11
2023-04-12T08:33:27.119Z,47.50
2023-04-12T08:35:54.340Z,46.92
2023-04-12T08:38:30.651Z,46.69
2023-04-12T08:41:05.557Z,47.85
2023-04-12T08:43:33.963Z,47.84
2023-04-12T08:46:01.866Z,46.80
2023-04-12T08:48:29.650Z,47.22
2023-04-12T08:50:57.641Z,46.82
2023-04-12T08:53:24.765Z,46.89
2023-04-12T08:55:52.027Z,47.74
2023-04-12T08:58:20.770Z,47.33
2023-04-12T09:00:48.055Z,47.71
2023-04-12T09:03:15.318Z,47.21
2023-04-12T09:05:42.506Z,47.57
2023-04-12T09:08:10.028Z,48.29
2023-04-12T09:10:38.358Z,48.20
2023-04-12T09:13:06.275Z,49.16
2023-04-12T09:15:34.148Z,49.19
2023-04-12T09:18:04.801Z,48.61
2023-04-12T09:20:32.293Z,48.78
2023-04-12T09:22:59.442Z,48.89
2023-04-12T09:25:40.099Z,48.13
2023-04-12T09:28:30.011Z,47.06
2023-04-12T09:30:58.574Z,48.20
2023-04-12T09:33:38.382Z,46.81
2023-04-12T09:36:09.283Z,46.91
2023-04-12T09:38:37.144Z,47.37
2023-04-12T09:41:26.516Z,46.86
2023-04-12T09:43:54.466Z,47.34
2023-04-12T09:46:30.927Z,47.08
2023-04-12T09:48:59.351Z,47.45
2023-04-12T09:51:32.538Z,47.57
2023-04-12T09:54:04.350Z,48.10
2023-04-12T09:56:34.230Z,48.46
2023-04-12T09:59:06.895Z,48.82
2023-04-12T10:01:36.899Z,47.78
2023-04-12T10:04:05.899Z,48.66
2023-04-12T10:06:34.000Z,48.17
2023-04-12T10:09:04.344Z,48.33
2023-04-12T10:11:32.060Z,49.43
2023-04-12T10:13:59.936Z,49.38
2023-04-12T10:16:27.476Z,49.23
2023-04-12T10:18:55.391Z,48.87
2023-04-12T10:21:23.327Z,49.20
2023-04-12T10:23:50.823Z,49.20
2023-04-12T10:26:18.524Z,49.25
2023-04-12T10:28:47.526Z,47.82
2023-04-12T10:31:27.538Z,47.49
2023-04-12T10:33:55.235Z,48.10
2023-04-12T10:36:52.519Z,47.33
2023-04-12T10:39:35.364Z,47.52
2023-04-12T10:42:25.455Z,46.65
2023-04-12T10:44:55.076Z,47.35
2023-04-12T10:47:53.709Z,47.33
2023-04-12T10:50:26.844Z,46.76
2023-04-12T10:53:22.077Z,46.67
2023-04-12T10:55:49.206Z,46.93
2023-04-12T10:58:47.712Z,46.32
2023-04-12T11:01:18.324Z,47.03
2023-04-12T11:04:21.058Z,46.97
2023-04-12T11:06:52.842Z,46.93
2023-04-12T11:09:38.893Z,46.87
2023-04-12T11:12:06.596Z,47.18
2023-04-12T11:14:46.469Z,47.08
2023-04-12T11:17:13.619Z,46.02
2023-04-12T11:19:44.994Z,46.33
2023-04-12T11:22:13.728Z,45.89
2023-04-12T11:24:48.815Z,45.31
2023-04-12T11:27:17.424Z,46.21
2023-04-12T11:29:44.786Z,45.64
2023-04-12T11:32:16.834Z,45.82
2023-04-12T11:34:46.113Z,45.96
2023-04-12T11:37:13.522Z,46.42
2023-04-12T11:39:45.202Z,46.57
2023-04-12T11:42:16.609Z,46.50
2023-04-12T11:44:57.309Z,47.30
2023-04-12T11:47:26.969Z,46.67
2023-04-12T11:49:56.433Z,47.34
2023-04-12T11:52:31.496Z,47.67
2023-04-12T11:55:04.968Z,47.33
2023-04-12T11:57:36.424Z,47.99
2023-04-12T12:00:06.450Z,47.45
2023-04-12T12:02:39.249Z,47.78
2023-04-12T12:05:13.748Z,47.92
2023-04-12T12:07:41.061Z,48.31
2023-04-12T12:10:08.749Z,48.49
2023-04-12T12:12:35.947Z,48.91
2023-04-12T12:15:02.995Z,49.47
2023-04-12T12:17:30.158Z,50.39
2023-04-12T12:19:59.453Z,50.11
2023-04-12T12:22:26.549Z,50.33
2023-04-12T12:24:58.504Z,50.48
2023-04-12T12:27:34.735Z,50.60
2023-04-12T12:30:04.349Z,51.41
2023-04-12T12:32:37.121Z,51.70
2023-04-12T12:35:13.035Z,52.19
2023-04-12T12:37:52.215Z,53.71
2023-04-12T12:40:29.306Z,54.62
2023-04-12T12:42:56.525Z,57.93
2023-04-12T12:45:26.684Z,58.48
2023-04-12T12:48:05.003Z,57.96
2023-04-12T12:50:33.908Z,59.57
2023-04-12T12:53:01.474Z,59.54
2023-04-12T12:55:30.380Z,61.12
2023-04-12T13:00:28.747Z,61.08
2023-04-12T13:02:56.476Z,62.22
2023-04-12T13:05:23.851Z,62.65
2023-04-12T13:07:51.563Z,63.44
2023-04-12T13:10:18.932Z,63.25
2023-04-12T13:12:46.414Z,64.33
2023-04-12T13:17:44.307Z,66.15
2023-04-12T13:20:11.394Z,67.99
2023-04-12T13:22:38.894Z,67.33
2023-04-12T13:25:06.913Z,68.95
2023-04-12T13:27:34.385Z,66.92
2023-04-12T13:30:01.707Z,68.04
2023-04-12T13:32:28.862Z,68.48
2023-04-12T13:34:55.954Z,68.79
2023-04-12T13:37:23.371Z,68.60
2023-04-12T13:39:51.335Z,68.21
2023-04-12T13:42:18.452Z,68.76
2023-04-12T13:44:46.030Z,69.03
2023-04-12T13:47:13.374Z,68.84
2023-04-12T13:49:40.808Z,71.36
2023-04-12T13:52:08.010Z,70.25
2023-04-12T13:54:35.826Z,70.50
2023-04-12T13:57:03.904Z,71.70
2023-04-12T13:59:30.984Z,71.13
2023-04-12T14:01:58.189Z,71.73
2023-04-12T14:04:27.963Z,72.69
2023-04-12T14:06:56.035Z,71.44
2023-04-12T14:09:27.425Z,72.52
2023-04-12T14:11:56.317Z,72.70
2023-04-12T14:14:24.554Z,73.30
2023-04-12T14:16:54.640Z,73.04
2023-04-12T14:19:21.985Z,73.59
2023-04-12T14:21:49.403Z,72.29
2023-04-12T14:24:18.903Z,71.69
2023-04-12T14:26:47.010Z,73.03
2023-04-12T14:29:14.035Z,73.69
2023-04-12T14:31:41.251Z,73.74
2023-04-12T14:34:09.142Z,74.49
2023-04-12T14:36:36.598Z,74.33
2023-04-12T14:39:04.108Z,74.98
2023-04-12T14:41:31.978Z,75.99
2023-04-12T14:44:00.117Z,75.53
2023-04-12T14:46:28.366Z,75.79
2023-04-12T14:48:57.189Z,75.08
2023-04-12T14:51:24.560Z,73.93
2023-04-12T14:53:51.649Z,74.35
2023-04-12T14:56:25.443Z,73.84
2023-04-12T14:58:54.302Z,73.91
2023-04-12T15:01:23.404Z,75.04
2023-04-12T15:03:53.974Z,74.57
2023-04-12T15:06:23.367Z,74.90
2023-04-12T15:08:54.970Z,74.10
2023-04-12T15:11:26.933Z,74.19
2023-04-12T15:13:55.252Z,75.25
2023-04-12T15:16:23.008Z,75.12
2023-04-12T15:18:50.623Z,75.05
2023-04-12T15:21:17.686Z,74.32
2023-04-12T15:23:44.949Z,75.04
2023-04-12T15:26:13.923Z,74.77
2023-04-12T15:28:41.554Z,74.55
2023-04-12T15:31:09.376Z,74.50
2023-04-12T15:33:37.780Z,74.81
2023-04-12T15:36:05.485Z,74.14
2023-04-12T15:38:32.657Z,74.52
2023-04-12T15:41:01.259Z,74.81
2023-04-12T15:43:28.807Z,74.46
2023-04-12T15:45:57.005Z,74.10
2023-04-12T15:48:25.047Z,73.73
2023-04-12T15:50:53.685Z,72.99
2023-04-12T15:53:22.657Z,73.19
2023-04-12T15:55:54.685Z,72.36
2023-04-12T15:58:22.949Z,72.34
2023-04-12T16:00:52.892Z,72.07
2023-04-12T16:03:23.041Z,72.02
2023-04-12T16:05:53.494Z,72.29
2023-04-12T16:08:21.878Z,71.35
2023-04-12T16:10:50.335Z,71.24
2023-04-12T16:13:18.423Z,70.82
2023-04-12T16:15:46.380Z,70.35
2023-04-12T16:18:13.731Z,70.52
2023-04-12T16:20:40.940Z,70.44
2023-04-12T16:23:08.464Z,70.15
2023-04-12T16:25:35.968Z,70.54
2023-04-12T16:28:03.538Z,70.63
2023-04-12T16:30:31.535Z,70.47
2023-04-12T16:32:58.690Z,70.09
2023-04-12T16:35:25.873Z,70.13
2023-04-12T16:37:52.954Z,70.04
2023-04-12T16:40:20.283Z,69.77
2023-04-12T16:42:47.378Z,69.63
2023-04-12T16:45:15.075Z,70.22
2023-04-12T16:47:42.743Z,70.48
2023-04-12T16:50:10.330Z,70.04
2023-04-12T16:52:38.170Z,69.92
2023-04-12T16:55:06.115Z,69.76
2023-04-12T16:57:33.203Z,70.10
2023-04-12T17:00:00.520Z,70.06
2023-04-12T17:02:28.219Z,70.67
2023-04-12T17:04:55.486Z,70.25
2023-04-12T17:07:22.778Z,70.22
2023-04-12T17:09:49.855Z,69.86
2023-04-12T17:12:16.882Z,70.04
2023-04-12T17:14:43.998Z,69.83
2023-04-12T17:17:11.065Z,70.73
2023-04-12T17:19:38.119Z,70.39
2023-04-12T17:22:05.197Z,69.82
2023-04-12T17:24:32.264Z,70.65
2023-04-12T17:27:00.934Z,69.87
2023-04-12T17:29:28.024Z,70.38
2023-04-12T17:31:55.508Z,70.15
2023-04-12T17:34:22.546Z,70.58
2023-04-12T17:36:49.632Z,70.23
2023-04-12T17:39:16.741Z,70.40
2023-04-12T17:41:44.218Z,70.02
2023-04-12T17:44:11.527Z,70.41
2023-04-12T17:46:38.829Z,70.03
2023-04-12T17:49:06.695Z,69.80
2023-04-12T17:51:33.986Z,70.07
2023-04-12T17:54:03.660Z,70.08
2023-04-12T17:56:30.793Z,70.31
2023-04-12T17:58:58.638Z,70.24
2023-04-12T18:01:25.822Z,70.39
2023-04-12T18:03:53.049Z,70.04
2023-04-12T18:06:20.562Z,70.16
2023-04-12T18:08:47.715Z,70.31
2023-04-12T18:11:14.803Z,70.27
2023-04-12T18:13:42.399Z,70.23
2023-04-12T18:16:09.765Z,70.33
2023-04-12T18:18:36.907Z,70.76
2023-04-12T18:21:06.269Z,71.11
2023-04-12T18:23:34.572Z,71.15
2023-04-12T18:26:01.679Z,71.15
2023-04-12T18:28:31.476Z,71.83
2023-04-12T18:30:58.673Z,71.55
2023-04-12T18:33:25.899Z,71.68
2023-04-12T18:35:54.304Z,71.17
2023-04-12T18:38:22.354Z,71.48
2023-04-12T18:40:49.972Z,71.62
2023-04-12T18:43:17.204Z,71.68
2023-04-12T18:45:44.383Z,71.37
2023-04-12T18:48:11.600Z,71.30
2023-04-12T18:50:39.295Z,71.36
2023-04-12T18:53:07.186Z,71.35
2023-04-12T18:55:34.254Z,71.55
2023-04-12T18:58:01.354Z,71.53
2023-04-12T19:00:29.603Z,71.59
2023-04-12T19:02:56.735Z,71.64
2023-04-12T19:05:23.927Z,72.01
2023-04-12T19:07:51.797Z,71.54
2023-04-12T19:10:18.852Z,71.61
2023-04-12T19:12:45.901Z,71.32
2023-04-12T19:15:12.975Z,71.13
2023-04-12T19:17:40.116Z,71.19
2023-04-12T19:20:08.109Z,70.91
2023-04-12T19:22:35.336Z,71.33
2023-04-12T19:25:02.873Z,71.13
2023-04-12T19:27:29.960Z,71.35
2023-04-12T19:29:58.448Z,71.11
2023-04-12T19:32:25.952Z,71.14
2023-04-12T19:34:53.060Z,71.51
2023-04-12T19:37:20.126Z,71.47
2023-04-12T19:39:47.286Z,71.72
2023-04-12T19:42:15.758Z,71.94
2023-04-12T19:44:42.870Z,72.18
2023-04-12T19:47:09.974Z,71.70
2023-04-12T19:49:37.638Z,71.59
2023-04-12T19:52:05.603Z,71.66
2023-04-12T19:54:33.441Z,71.54
2023-04-12T19:57:00.596Z,72.11
2023-04-12T19:59:30.820Z,71.62
2023-04-12T20:01:58.617Z,71.56
2023-04-12T20:04:26.445Z,71.33
2023-04-12T20:06:53.825Z,71.57
2023-04-12T20:09:24.012Z,71.31
2023-04-12T20:11:51.093Z,71.40
2023-04-12T20:14:18.428Z,71.56
2023-04-12T20:16:46.129Z,71.67
2023-04-12T20:19:13.181Z,72.22
2023-04-12T20:21:40.413Z,72.29
2023-04-12T20:24:08.712Z,72.26
2023-04-12T20:26:36.265Z,72.61
2023-04-12T20:29:05.179Z,72.29
2023-04-12T20:31:32.782Z,72.24
2023-04-12T20:34:00.308Z,72.31
2023-04-12T20:36:29.691Z,72.33
2023-04-12T20:38:57.516Z,72.16
2023-04-12T20:41:24.769Z,72.31
2023-04-12T20:43:52.206Z,72.44
2023-04-12T20:46:21.018Z,72.26
2023-04-12T20:48:50.709Z,72.16
2023-04-12T20:51:21.032Z,71.92
2023-04-12T20:53:48.307Z,71.88
2023-04-12T20:56:16.948Z,71.75
2023-04-12T20:58:44.654Z,71.96
2023-04-12T21:01:14.907Z,71.97
2023-04-12T21:03:43.232Z,71.68
2023-04-12T21:06:10.986Z,72.14
2023-04-12T21:08:38.832Z,71.99
2023-04-12T21:11:06.259Z,72.11
2023-04-12T21:13:34.509Z,72.05
2023-04-12T21:16:02.662Z,72.02
2023-04-12T21:18:32.156Z,72.20
2023-04-12T21:20:59.768Z,72.09
2023-04-12T21:23:27.906Z,72.33
2023-04-12T21:25:55.144Z,72.60
2023-04-12T21:28:22.920Z,72.34
2023-04-12T21:30:54.898Z,72.37
2023-04-12T21:33:25.585Z,72.67
2023-04-12T21:35:54.342Z,72.63
2023-04-12T21:38:22.399Z,72.53
2023-04-12T21:40:49.889Z,72.78
2023-04-12T21:43:17.156Z,72.86
2023-04-12T21:45:45.214Z,72.83
2023-04-12T21:48:14.555Z,72.92
2023-04-12T21:50:41.991Z,73.12
2023-04-12T21:53:09.140Z,73.26
2023-04-12T21:55:36.375Z,73.34
2023-04-12T21:58:03.848Z,73.25
2023-04-12T22:00:32.117Z,73.12
2023-04-12T22:02:59.929Z,73.16
2023-04-12T22:05:27.878Z,72.91
2023-04-12T22:07:55.345Z,72.92
2023-04-12T22:10:22.783Z,73.03
2023-04-12T22:12:53.968Z,73.17
2023-04-12T22:15:21.068Z,73.39
2023-04-12T22:17:48.395Z,73.65
2023-04-12T22:20:15.644Z,73.46
2023-04-12T22:22:42.847Z,73.65
2023-04-12T22:25:12.142Z,73.60
2023-04-12T22:27:40.076Z,73.69
2023-04-12T22:30:10.021Z,73.90
2023-04-12T22:32:37.623Z,73.94
2023-04-12T22:35:08.673Z,74.07
2023-04-12T22:37:39.007Z,74.57
2023-04-12T22:40:12.702Z,74.54
2023-04-12T22:42:46.234Z,74.78
2023-04-12T22:45:15.197Z,74.97
2023-04-12T22:47:43.325Z,75.06
2023-04-12T22:50:13.773Z,75.00
2023-04-12T22:52:41.842Z,74.95
2023-04-12T22:55:11.651Z,75.44
2023-04-12T22:57:38.835Z,75.00
2023-04-12T23:00:06.581Z,75.32
2023-04-12T23:02:34.111Z,75.45
2023-04-12T23:05:03.166Z,75.10
2023-04-12T23:07:31.198Z,75.32
2023-04-12T23:09:58.436Z,75.51
2023-04-12T23:12:25.558Z,75.63
2023-04-12T23:14:55.717Z,75.64
2023-04-12T23:17:23.553Z,75.60
2023-04-12T23:19:51.663Z,75.44
2023-04-12T23:22:52.580Z,75.60
2023-04-12T23:25:23.889Z,75.87
2023-04-12T23:27:51.429Z,75.75
2023-04-12T23:30:19.025Z,75.68
2023-04-12T23:32:46.438Z,75.85
2023-04-12T23:35:14.720Z,75.45
2023-04-12T23:37:43.202Z,75.54
2023-04-12T23:40:14.658Z,75.49
2023-04-12T23:42:43.421Z,75.66
2023-04-12T23:45:12.460Z,75.16
2023-04-12T23:47:39.721Z,75.30
2023-04-12T23:50:07.755Z,75.38
2023-04-12T23:52:35.884Z,75.34
2023-04-12T23:55:03.510Z,75.34
2023-04-12T23:57:30.710Z,75.33
2023-04-12T23:59:58.130Z,75.43
